AirNav   Everest Fuels
 
 665 users online  

MI21 Dan's Apple Farm Heliport
Clinton Township, Michigan, USA

GOING TO CLINTON TOWNSHIP?


FAA INFORMATION EFFECTIVE 18 JUNE 2020

Location

FAA Identifier: MI21
Lat/Long: 42-37-17.5400N 082-52-32.5200W
42-37.292333N 082-52.542000W
42.6215389,-82.8757000
(estimated)
Elevation: 620 ft. / 189 m (estimated)
From city: 3 miles NE of CLINTON TOWNSHIP, MI
Time zone: UTC -4 (UTC -5 during Standard Time)
Zip code: 48043

Heliport Operations

Heliport use: Private use. Permission required prior to landing
Activation date: 01/2017
Control tower: no
ARTCC: CLEVELAND CENTER
FSS: LANSING FLIGHT SERVICE STATION
Attendance: 
Segmented circle: no

Heliport Communications

WX ASOS at DET (14 nm SW): PHONE 313-371-9696
WX AWOS-3 at VLL (14 nm W): 119.475 (248-288-4649)

Nearby radio navigation aids

VOR radial/distance  VOR name  Freq  Var
DXOr048/32.8DETROIT VOR/DME113.4006W
SVMr071/34.2SALEM VORTAC114.3003W

 
NDB name  Hdg/Dist  Freq  Var  ID
GROSSE ILE028/33.641907WRYS .-. -.-- ...

Heliport Services

Runway Information

Helipad H1

Dimensions: 30 x 30 ft. / 9 x 9 m
Surface: turf
Traffic pattern: leftleft

Heliport Ownership and Management from official FAA records

Ownership: Privately-owned
Owner: DANIEL MAKUROF
23161 OBERLIESEN RD
CLINTON TOWNSHIP, MI 48036
Phone 586 997 7466

Additional Remarks

FOR CD CTC CLEVELAND ARTCC AT 440-774-0490.

Instrument Procedures

There are no published instrument procedures at MI21.

Some nearby airports with instrument procedures:

KMTC - Selfridge Air National Guard Base (2 nm E)
57D - Ray Community Airport (7 nm N)
D98 - Romeo State Airport (11 nm N)
KDET - Coleman A Young Municipal Airport (14 nm SW)
KVLL - Oakland/Troy Airport (14 nm W)
 
Loc | Ops | Rwys | IFR | FBO | Links
Com | Nav | Svcs | Stats | Notes
Aerial photo
No photo
 
Airport distance calculator
Flying to Dan's Apple Farm Heliport? Find the distance to fly.

From to MI21

Sunrise and sunset
Times for 10-Jul-2020
 Local
(UTC-4)
 Zulu
(UTC)
Morning civil twilight05:3109:31
Sunrise06:0510:05
Sunset21:0901:09
Evening civil twilight21:4301:43

Current date and time
Zulu (UTC)  11-Jul-2020 03:59:32
Local (UTC-4)  10-Jul-2020 23:59:32
 
METAR
KMTC 
3nm E 
110342Z AUTO 30007KT 10SM -RA SCT070 BKN110 23/23 A2970 RMK AO2 RAB42 TSE11 SLP057 $
KVLL 
14nm W 
110335Z AUTO 34005G14KT 10SM RA SCT033 BKN042 BKN048 21/21 A2975 RMK AO2 T02060205
KDET 
15nm SW 
110353Z 33009KT 4SM RA BR FEW008 BKN075 OVC090 22/21 A2972 RMK AO2 LTG DSNT E SLP059 P0020 T02170206
TAF
KMTC 
3nm E 
110100Z 1101/1207 30006KT 9000 -SHRA BKN020 QNH2966INS TEMPO 1101/1107 29020G25KT 8000 -TSRA OVC010CB BECMG 1108/1109 31009KT 9000 BR OVC015 QNH2969INS BECMG 1112/1113 30015G20KT 9999 NSW SCT020 BKN025 QNH2975INS BECMG 1115/1116 31020G25KT 9999 FEW030 QNH2977INS BECMG 1200/1201 32009KT 9999 SCT040 BKN050 QNH2979INS TX27/1121Z TN19/1111Z LAST NO AMDS AFT 1103 NEXT 1109
KDET 
15nm SW 
102049Z 1021/1118 08006KT P6SM SCT045 BKN100 FM102300 24006KT 5SM SHRA VCTS SCT020 BKN030 OVC050CB FM110300 31011KT P6SM -SHRA BKN025 OVC050 TEMPO 1103/1107 3SM SHRA FM111000 30010KT P6SM SCT050 FM111600 30014KT P6SM SCT050 BKN060
NOTAMs
Click for the latest NOTAMs
NOTAMs are issued by the DoD/FAA and will open in a separate window not controlled by AirNav.

 

 
 

Would you like to see your business listed on this page?

 If your business provides an interesting product or service to pilots, flight crews, aircraft, or users of the Dan's Apple Farm Heliport, you should consider listing it here.  To start the listing process, click on the button below
 
Add a business
 

Other Pages about Dan's Apple Farm Heliport

Update a link
 
Copyright © AirNav, LLC. All rights reserved. Privacy Policy  Contact